Time;durP1;ratioP1;P1;durP2;ratioP2;P2;SDS_P1;SDS_P2;PMS_P1;PMS_P2;Temp;Humidity;BMP_temperature;BMP_pressure;BME280_temperature;BME280_humidity;BME280_pressure;Samples;Min_cycle;Max_cycle;Signal;HPM_P1;HPM_P2
2022/10/16 00:01:58;;;;;;;8.55;2.95;;;11.30;99.90;;;;;;5057712;28;20364;-72
2022/10/16 00:04:24;;;;;;;15.82;3.05;;;11.30;99.90;;;;;;5055346;28;20048;-71
2022/10/16 00:06:49;;;;;;;11.73;3.40;;;11.30;99.90;;;;;;5039111;28;20073;-72
2022/10/16 00:09:15;;;;;;;10.00;3.05;;;11.30;99.90;;;;;;5020308;28;20365;-74
2022/10/16 00:11:41;;;;;;;13.18;2.95;;;11.30;99.90;;;;;;5037913;28;20128;-72
2022/10/16 00:14:13;;;;;;;12.50;3.25;;;11.30;99.90;;;;;;5037665;28;20057;-72
2022/10/16 00:16:40;;;;;;;15.10;4.18;;;11.30;99.90;;;;;;5037468;28;20116;-71
2022/10/16 00:19:05;;;;;;;8.95;2.80;;;11.30;99.90;;;;;;5041192;28;20505;-71
2022/10/16 00:21:31;;;;;;;9.02;2.65;;;11.30;99.90;;;;;;5057213;28;20091;-72
2022/10/16 00:24:08;;;;;;;10.05;2.30;;;11.30;99.90;;;;;;5057185;28;20063;-72
2022/10/16 00:26:36;;;;;;;10.65;2.90;;;11.30;99.90;;;;;;5057694;28;20048;-71
2022/10/16 00:29:02;;;;;;;6.82;3.20;;;11.30;99.90;;;;;;5057476;28;20044;-72
2022/10/16 00:31:29;;;;;;;8.88;2.60;;;11.30;99.90;;;;;;5057557;28;20048;-72
2022/10/16 00:33:55;;;;;;;8.93;2.80;;;11.30;99.90;;;;;;5056580;28;20510;-72
2022/10/16 00:36:23;;;;;;;12.23;3.28;;;11.30;99.90;;;;;;5057600;28;20080;-73
2022/10/16 00:38:54;;;;;;;12.35;3.17;;;11.30;99.90;;;;;;5005710;28;20049;-72
2022/10/16 00:41:21;;;;;;;14.48;2.80;;;11.30;99.90;;;;;;5039410;28;20052;-71
2022/10/16 00:43:50;;;;;;;8.13;2.50;;;11.30;99.90;;;;;;5056933;28;20037;-71
2022/10/16 00:46:25;;;;;;;8.38;2.65;;;11.30;99.90;;;;;;5056836;28;20040;-72
2022/10/16 00:49:03;;;;;;;7.90;2.47;;;11.40;99.90;;;;;;5057109;28;20132;-73
2022/10/16 00:51:37;;;;;;;13.40;2.90;;;11.40;99.90;;;;;;5039532;28;20053;-71
2022/10/16 00:54:06;;;;;;;9.10;2.42;;;11.40;99.90;;;;;;5056492;28;20041;-72
2022/10/16 00:56:33;;;;;;;13.07;2.95;;;11.40;99.90;;;;;;5057072;28;20071;-73
2022/10/16 00:59:01;;;;;;;7.28;2.30;;;11.40;99.90;;;;;;5057048;28;20362;-72
2022/10/16 01:01:28;;;;;;;5.93;2.03;;;11.40;99.90;;;;;;5056925;28;20410;-72
2022/10/16 01:03:53;;;;;;;8.23;2.13;;;11.60;99.90;;;;;;5056992;28;20118;-72
2022/10/16 01:06:37;;;;;;;9.23;2.53;;;11.40;99.90;;;;;;5056652;28;20453;-72
2022/10/16 01:09:22;;;;;;;14.32;2.55;;;11.40;99.90;;;;;;5056318;28;20045;-72
2022/10/16 01:12:09;;;;;;;6.13;2.40;;;11.40;99.90;;;;;;5056904;28;20064;-73
2022/10/16 01:14:58;;;;;;;10.55;2.42;;;11.50;99.90;;;;;;5056715;28;20083;-72
2022/10/16 01:17:49;;;;;;;12.55;3.03;;;11.40;99.90;;;;;;5055460;28;20071;-72
2022/10/16 01:20:29;;;;;;;13.15;2.63;;;11.50;99.90;;;;;;5056813;28;20420;-72
2022/10/16 01:23:19;;;;;;;4.93;1.92;;;11.50;99.90;;;;;;5056162;28;20052;-73
2022/10/16 01:26:10;;;;;;;8.77;2.67;;;11.50;99.90;;;;;;5056542;28;20083;-73
2022/10/16 01:28:48;;;;;;;13.05;2.47;;;11.50;99.90;;;;;;5039441;28;20044;-71
2022/10/16 01:31:17;;;;;;;6.00;2.20;;;11.50;99.90;;;;;;5056425;28;20037;-73
2022/10/16 01:33:47;;;;;;;8.10;1.92;;;11.50;99.90;;;;;;5038924;28;20146;-73
2022/10/16 01:36:23;;;;;;;9.35;2.83;;;11.50;99.90;;;;;;5056052;28;20053;-74
2022/10/16 01:38:54;;;;;;;8.05;2.42;;;11.50;99.90;;;;;;5055950;28;20056;-76
2022/10/16 01:41:27;;;;;;;6.75;2.40;;;11.50;99.90;;;;;;5055871;28;20051;-72
2022/10/16 01:43:59;;;;;;;7.85;2.45;;;11.60;99.90;;;;;;5055780;28;20052;-71
2022/10/16 01:46:26;;;;;;;8.90;2.47;;;11.60;99.90;;;;;;5055371;28;20450;-71
2022/10/16 01:48:52;;;;;;;8.90;2.55;;;11.60;99.90;;;;;;5055835;28;20051;-73
2022/10/16 01:51:20;;;;;;;5.63;2.33;;;11.60;99.90;;;;;;5055908;28;20099;-71
2022/10/16 01:53:51;;;;;;;7.45;2.58;;;11.70;99.90;;;;;;5055661;28;20044;-71
2022/10/16 01:56:17;;;;;;;10.63;2.45;;;11.60;99.90;;;;;;5038125;28;20107;-72
2022/10/16 01:58:49;;;;;;;8.55;2.35;;;11.60;99.90;;;;;;5037987;28;20049;-73
2022/10/16 02:01:18;;;;;;;6.32;2.35;;;11.60;99.90;;;;;;5056171;28;20106;-73
2022/10/16 02:03:45;;;;;;;7.25;2.47;;;11.60;99.90;;;;;;5055578;28;20109;-72
2022/10/16 02:06:12;;;;;;;8.52;2.42;;;11.60;99.90;;;;;;5055207;28;20041;-71
2022/10/16 02:08:40;;;;;;;7.20;2.50;;;11.60;99.90;;;;;;5055504;28;20106;-74
2022/10/16 02:11:06;;;;;;;9.32;2.20;;;11.60;99.90;;;;;;5055021;28;20457;-73
2022/10/16 02:13:39;;;;;;;8.02;1.77;;;11.60;99.90;;;;;;5037917;28;20076;-72
2022/10/16 02:16:06;;;;;;;8.60;2.45;;;11.60;99.90;;;;;;5038756;28;20049;-72
2022/10/16 02:18:31;;;;;;;8.68;2.42;;;11.60;99.90;;;;;;5055343;28;20036;-73
2022/10/16 02:21:02;;;;;;;6.93;2.40;;;11.60;99.90;;;;;;5038114;28;20456;-71
2022/10/16 02:23:55;;;;;;;8.15;2.25;;;11.60;99.90;;;;;;5055144;28;20045;-72
2022/10/16 02:26:59;;;;;;;4.78;2.00;;;11.60;99.90;;;;;;5037961;28;20053;-73
2022/10/16 02:29:28;;;;;;;7.32;2.03;;;11.60;99.90;;;;;;5037415;28;20521;-73
2022/10/16 02:32:02;;;;;;;10.95;2.95;;;11.60;99.90;;;;;;5055070;28;20037;-72
2022/10/16 02:34:29;;;;;;;;;;;11.60;99.90;;;;;;5055369;28;20113;-73
2022/10/16 02:36:57;;;;;;;11.85;2.47;;;11.70;99.90;;;;;;5037001;28;20348;-71
2022/10/16 02:39:23;;;;;;;6.43;2.00;;;11.70;99.90;;;;;;5055072;28;20093;-71
2022/10/16 02:41:49;;;;;;;8.88;2.33;;;11.80;99.90;;;;;;5055129;28;20449;-71
2022/10/16 02:44:14;;;;;;;7.40;2.08;;;11.80;99.90;;;;;;5037311;28;20052;-74
2022/10/16 02:46:40;;;;;;;5.07;2.25;;;11.80;99.90;;;;;;5055478;28;20037;-72
2022/10/16 02:49:05;;;;;;;4.68;1.92;;;11.80;99.90;;;;;;5055527;28;20056;-73
2022/10/16 02:51:31;;;;;;;7.53;2.55;;;11.80;99.90;;;;;;5054717;28;20449;-71
2022/10/16 02:53:56;;;;;;;6.95;2.15;;;11.80;99.90;;;;;;5037814;28;20485;-71
2022/10/16 02:56:22;;;;;;;8.30;2.17;;;11.90;99.90;;;;;;5054431;28;20052;-71
2022/10/16 02:58:47;;;;;;;7.20;2.25;;;11.90;99.90;;;;;;5054968;28;20341;-73
2022/10/16 03:01:14;;;;;;;9.65;2.72;;;11.90;99.90;;;;;;5054693;28;20049;-73
2022/10/16 03:03:39;;;;;;;4.88;1.88;;;11.90;99.90;;;;;;5054933;28;20049;-73
2022/10/16 03:06:05;;;;;;;4.25;2.08;;;12.00;99.90;;;;;;5054711;28;20420;-71
2022/10/16 03:08:31;;;;;;;4.55;2.00;;;12.00;99.90;;;;;;5054918;28;20045;-72
2022/10/16 03:10:57;;;;;;;6.05;2.28;;;12.00;99.90;;;;;;5054951;28;20460;-72
2022/10/16 03:13:22;;;;;;;5.68;2.22;;;12.00;99.90;;;;;;5037152;28;20107;-73
2022/10/16 03:15:48;;;;;;;7.88;2.47;;;12.00;99.90;;;;;;5054293;28;20086;-71
2022/10/16 03:18:14;;;;;;;5.32;2.58;;;12.00;99.90;;;;;;5054514;28;20052;-73
2022/10/16 03:20:39;;;;;;;6.13;2.58;;;12.00;99.90;;;;;;5054222;28;20048;-71
2022/10/16 03:23:06;;;;;;;8.57;2.33;;;12.00;99.90;;;;;;5054640;28;20437;-75
2022/10/16 03:25:32;;;;;;;19.48;2.70;;;12.00;99.90;;;;;;5054837;28;20356;-72
2022/10/16 03:27:57;;;;;;;9.00;3.22;;;12.00;99.90;;;;;;5037066;28;20053;-73
2022/10/16 03:30:23;;;;;;;5.35;2.05;;;12.00;99.90;;;;;;5037031;28;20052;-73
2022/10/16 03:32:53;;;;;;;7.07;2.30;;;12.00;99.90;;;;;;5054697;28;20072;-72
2022/10/16 03:35:19;;;;;;;4.95;2.28;;;11.90;99.90;;;;;;5037279;28;20060;-71
2022/10/16 03:37:45;;;;;;;4.78;2.28;;;11.90;99.90;;;;;;5054517;28;20036;-73
2022/10/16 03:40:11;;;;;;;6.70;2.38;;;11.90;99.90;;;;;;5036868;28;20342;-73
2022/10/16 03:42:36;;;;;;;7.43;2.15;;;11.90;99.90;;;;;;5054372;28;20071;-73
2022/10/16 03:45:02;;;;;;;7.68;2.40;;;11.90;99.90;;;;;;5054338;28;20683;-71
2022/10/16 03:47:28;;;;;;;4.60;2.40;;;11.90;99.90;;;;;;5054147;28;20478;-72
2022/10/16 03:49:54;;;;;;;5.35;2.20;;;11.90;99.90;;;;;;5054380;28;20049;-74
2022/10/16 03:52:19;;;;;;;5.38;2.03;;;11.90;99.90;;;;;;5054052;28;20044;-72
2022/10/16 03:54:45;;;;;;;6.70;2.50;;;12.00;99.90;;;;;;5040012;28;20515;-73
2022/10/16 03:57:10;;;;;;;6.47;2.80;;;11.80;99.90;;;;;;5034282;28;20072;-72
2022/10/16 03:59:36;;;;;;;8.30;2.70;;;11.80;99.90;;;;;;5034243;28;20123;-72
2022/10/16 04:02:01;;;;;;;6.25;3.00;;;11.80;99.90;;;;;;5033984;28;20050;-72
2022/10/16 04:04:27;;;;;;;6.13;2.80;;;11.80;99.90;;;;;;5034373;28;20060;-73
2022/10/16 04:06:52;;;;;;;5.72;2.33;;;11.70;99.90;;;;;;5050734;28;20111;-73
2022/10/16 04:09:18;;;;;;;5.65;2.35;;;11.70;99.90;;;;;;5056583;28;20045;-72
2022/10/16 04:11:43;;;;;;;6.10;2.78;;;11.70;99.90;;;;;;5058012;28;20175;-72
2022/10/16 04:14:09;;;;;;;5.32;2.50;;;11.60;99.90;;;;;;5057908;28;20469;-73
2022/10/16 04:16:34;;;;;;;5.60;2.63;;;11.60;99.90;;;;;;5040492;28;20521;-72
2022/10/16 04:19:00;;;;;;;13.57;3.60;;;11.60;99.90;;;;;;5057466;28;20045;-72
2022/10/16 04:21:26;;;;;;;5.25;2.05;;;11.60;99.90;;;;;;5057471;28;20041;-72
2022/10/16 04:23:51;;;;;;;5.82;2.25;;;11.60;99.90;;;;;;5057780;28;20452;-72
2022/10/16 04:26:17;;;;;;;10.95;2.80;;;11.60;99.90;;;;;;5040105;28;20044;-71
2022/10/16 04:28:43;;;;;;;5.50;2.50;;;11.70;99.90;;;;;;5057557;28;20057;-71
2022/10/16 04:31:08;;;;;;;5.53;2.28;;;11.60;99.90;;;;;;5039776;28;20128;-72
2022/10/16 04:33:34;;;;;;;8.88;2.45;;;11.60;99.90;;;;;;5057405;28;20073;-72
2022/10/16 04:36:00;;;;;;;6.80;2.65;;;11.60;99.90;;;;;;5056538;28;20152;-73
2022/10/16 04:38:26;;;;;;;7.65;2.40;;;11.60;99.90;;;;;;5057393;28;20131;-73
2022/10/16 04:40:52;;;;;;;4.72;2.42;;;11.60;99.90;;;;;;5057432;28;20124;-72
2022/10/16 04:43:18;;;;;;;7.72;2.30;;;11.60;99.90;;;;;;5056975;28;20133;-72
2022/10/16 04:45:44;;;;;;;6.03;2.35;;;11.60;99.90;;;;;;5056863;28;20476;-72
2022/10/16 04:48:09;;;;;;;5.57;2.15;;;11.50;99.90;;;;;;5056851;28;20044;-72
2022/10/16 04:50:35;;;;;;;7.45;2.60;;;11.70;99.90;;;;;;5039490;28;20060;-72
2022/10/16 04:53:00;;;;;;;5.90;3.03;;;11.60;99.90;;;;;;5039831;28;20132;-70
2022/10/16 04:55:26;;;;;;;11.07;2.85;;;11.70;99.90;;;;;;5039550;28;20037;-73
2022/10/16 04:57:52;;;;;;;7.15;2.60;;;11.70;99.90;;;;;;5039434;28;20417;-72
2022/10/16 05:00:17;;;;;;;6.18;2.85;;;11.70;99.90;;;;;;5057238;28;20041;-73
2022/10/16 05:02:43;;;;;;;11.82;2.92;;;11.80;99.90;;;;;;5056825;28;20052;-74
2022/10/16 05:05:09;;;;;;;8.70;2.53;;;11.90;99.90;;;;;;5056662;28;20048;-72
2022/10/16 05:07:34;;;;;;;6.47;2.53;;;11.90;99.90;;;;;;5057350;28;20079;-72
2022/10/16 05:10:00;;;;;;;7.10;2.50;;;11.90;99.90;;;;;;5039401;28;20068;-72
2022/10/16 05:12:25;;;;;;;7.30;2.55;;;12.00;99.90;;;;;;5056624;28;20487;-72
2022/10/16 05:14:51;;;;;;;9.00;2.67;;;12.00;99.90;;;;;;5039961;28;20045;-73
2022/10/16 05:17:16;;;;;;;7.63;3.08;;;12.00;99.90;;;;;;5039551;28;20128;-72
2022/10/16 05:19:42;;;;;;;6.68;2.65;;;12.10;99.90;;;;;;5056341;28;20041;-73
2022/10/16 05:22:08;;;;;;;6.32;2.72;;;12.00;99.90;;;;;;5039248;28;20041;-72
2022/10/16 05:24:33;;;;;;;5.45;2.75;;;12.10;99.90;;;;;;5056634;28;20120;-72
2022/10/16 05:26:59;;;;;;;4.95;2.90;;;12.10;99.90;;;;;;5055526;28;20461;-72
2022/10/16 05:29:24;;;;;;;7.05;2.95;;;12.00;99.90;;;;;;5038838;28;20335;-73
2022/10/16 05:31:53;;;;;;;8.95;2.80;;;12.10;99.90;;;;;;5056100;28;20060;-71
2022/10/16 05:34:20;;;;;;;7.25;2.92;;;12.10;99.90;;;;;;5056572;28;20041;-73
2022/10/16 05:36:45;;;;;;;5.57;2.45;;;12.10;99.90;;;;;;5038514;28;20053;-71
2022/10/16 05:39:13;;;;;;;8.77;3.03;;;12.10;99.90;;;;;;5039301;28;20056;-74
2022/10/16 05:41:38;;;;;;;8.25;2.42;;;12.20;99.90;;;;;;5038709;28;20115;-74
2022/10/16 05:44:05;;;;;;;4.50;2.53;;;12.20;99.90;;;;;;5055882;28;20477;-72
2022/10/16 05:46:31;;;;;;;5.30;2.80;;;12.20;99.90;;;;;;5038081;28;20147;-73
2022/10/16 05:48:57;;;;;;;6.03;3.08;;;12.30;99.90;;;;;;5038200;28;20041;-74
2022/10/16 05:51:22;;;;;;;6.57;3.03;;;12.20;99.90;;;;;;5055616;28;20041;-73
2022/10/16 05:53:48;;;;;;;12.50;3.08;;;12.20;99.90;;;;;;5044871;28;20048;-75
2022/10/16 05:56:14;;;;;;;5.57;2.53;;;12.20;99.90;;;;;;5035981;28;20130;-77
2022/10/16 05:58:40;;;;;;;6.28;2.70;;;12.20;99.90;;;;;;5046742;28;20073;-73
2022/10/16 06:01:10;;;;;;;6.32;2.80;;;12.20;99.90;;;;;;5055387;28;20048;-72
2022/10/16 06:03:36;;;;;;;8.75;3.22;;;12.30;99.90;;;;;;5020968;28;20100;-72
2022/10/16 06:06:12;;;;;;;6.85;2.60;;;12.20;99.90;;;;;;5054497;28;20061;-73
2022/10/16 06:08:38;;;;;;;7.18;3.03;;;12.20;99.90;;;;;;5055339;28;20103;-72
2022/10/16 06:11:06;;;;;;;7.65;3.13;;;12.20;99.90;;;;;;5044013;28;20064;-73
2022/10/16 06:13:32;;;;;;;6.70;2.95;;;12.20;99.90;;;;;;5044579;28;20374;-74
2022/10/16 06:15:59;;;;;;;15.27;2.70;;;12.20;99.90;;;;;;5042531;28;20045;-72
2022/10/16 06:18:25;;;;;;;5.18;3.13;;;12.20;99.90;;;;;;5051585;28;20045;-73
2022/10/16 06:20:51;;;;;;;6.25;2.90;;;12.20;99.90;;;;;;5035234;28;20110;-72
2022/10/16 06:23:17;;;;;;;8.25;2.90;;;12.20;99.90;;;;;;5048019;28;20464;-75
2022/10/16 06:25:43;;;;;;;10.45;3.00;;;12.20;99.90;;;;;;5038050;28;20354;-71
2022/10/16 06:28:08;;;;;;;7.03;2.78;;;12.30;99.90;;;;;;5037888;28;20049;-73
2022/10/16 06:30:34;;;;;;;8.93;2.95;;;12.30;99.90;;;;;;5037070;28;20478;-72
2022/10/16 06:32:59;;;;;;;7.47;2.97;;;12.30;99.90;;;;;;5037536;28;20041;-71
2022/10/16 06:35:25;;;;;;;6.45;3.47;;;12.30;99.90;;;;;;5054720;28;20056;-73
2022/10/16 06:37:53;;;;;;;10.20;3.10;;;12.30;99.90;;;;;;5054170;28;20063;-73
2022/10/16 06:40:18;;;;;;;9.77;2.80;;;12.30;99.90;;;;;;5054914;28;20048;-74
2022/10/16 06:42:44;;;;;;;6.55;2.60;;;12.50;99.90;;;;;;5054851;28;20343;-72
2022/10/16 06:45:10;;;;;;;9.30;3.08;;;12.40;99.90;;;;;;5054716;28;20060;-72
2022/10/16 06:47:36;;;;;;;5.60;2.65;;;12.40;99.90;;;;;;5037217;28;20041;-73
2022/10/16 06:50:01;;;;;;;6.00;2.53;;;12.40;99.90;;;;;;5054595;28;20055;-74
2022/10/16 06:52:30;;;;;;;8.25;3.58;;;12.50;99.90;;;;;;5054887;28;20048;-72
2022/10/16 06:54:55;;;;;;;9.30;3.17;;;12.60;99.90;;;;;;5054656;28;20128;-70
2022/10/16 06:57:21;;;;;;;6.90;2.60;;;12.60;99.90;;;;;;5039422;28;20121;-71
2022/10/16 06:59:47;;;;;;;16.98;5.10;;;12.80;99.90;;;;;;5047374;28;20457;-71
2022/10/16 07:02:13;;;;;;;7.35;2.85;;;12.90;99.90;;;;;;5043618;28;20109;-73
2022/10/16 07:04:38;;;;;;;7.05;2.85;;;12.70;99.90;;;;;;5037301;28;20088;-72
2022/10/16 07:07:04;;;;;;;9.10;3.65;;;12.80;99.90;;;;;;5037258;28;20057;-72
2022/10/16 07:09:29;;;;;;;8.35;2.55;;;12.80;99.90;;;;;;5038076;28;20044;-72
2022/10/16 07:11:55;;;;;;;9.70;3.08;;;12.90;99.90;;;;;;5037245;28;20103;-74
2022/10/16 07:14:21;;;;;;;7.03;2.67;;;12.90;99.90;;;;;;5054746;28;20059;-73
2022/10/16 07:16:47;;;;;;;7.93;3.17;;;13.00;99.90;;;;;;5054336;28;20033;-71
2022/10/16 07:19:15;;;;;;;7.80;2.70;;;13.00;99.90;;;;;;5049823;28;20063;-72
2022/10/16 07:21:41;;;;;;;5.40;2.65;;;13.10;99.90;;;;;;5054622;28;20138;-71
2022/10/16 07:24:12;;;;;;;7.63;3.50;;;13.20;99.90;;;;;;5054542;28;20049;-73
2022/10/16 07:26:39;;;;;;;6.50;2.72;;;13.20;99.90;;;;;;5054301;28;20448;-74
2022/10/16 07:29:10;;;;;;;6.28;2.58;;;13.40;99.90;;;;;;5051116;28;20111;-73
2022/10/16 07:31:36;;;;;;;9.35;2.42;;;13.40;99.90;;;;;;5054384;28;20045;-73
2022/10/16 07:34:02;;;;;;;5.47;2.50;;;13.60;99.90;;;;;;5054366;28;20472;-72
2022/10/16 07:36:28;;;;;;;8.18;2.35;;;13.60;99.90;;;;;;5020022;28;20044;-72
2022/10/16 07:38:53;;;;;;;5.82;2.22;;;13.50;99.90;;;;;;5047501;28;20363;-74
2022/10/16 07:41:19;;;;;;;8.77;2.55;;;13.50;99.90;;;;;;5034863;28;20120;-72
2022/10/16 07:43:49;;;;;;;8.55;2.45;;;13.50;99.90;;;;;;5037700;28;20087;-72
2022/10/16 07:46:17;;;;;;;6.63;2.78;;;13.50;99.90;;;;;;5042322;28;20049;-73
2022/10/16 07:48:46;;;;;;;7.38;2.42;;;13.50;99.90;;;;;;5058400;28;20056;-73
2022/10/16 07:51:12;;;;;;;6.57;2.97;;;13.50;99.90;;;;;;5058362;28;20071;-74
2022/10/16 07:53:38;;;;;;;5.97;2.33;;;13.50;99.90;;;;;;5057896;28;20037;-72
2022/10/16 07:56:06;;;;;;;4.20;2.15;;;13.50;99.90;;;;;;5057974;28;20468;-72
2022/10/16 07:58:32;;;;;;;8.38;2.40;;;13.60;99.90;;;;;;5058082;28;20041;-74
2022/10/16 08:00:58;;;;;;;8.43;2.42;;;13.70;99.90;;;;;;5057855;28;20345;-73
2022/10/16 08:03:24;;;;;;;5.60;2.20;;;13.70;99.90;;;;;;5046881;28;20053;-72
2022/10/16 08:05:50;;;;;;;6.70;2.20;;;13.80;99.90;;;;;;5046998;28;20056;-73
2022/10/16 08:08:17;;;;;;;6.35;2.53;;;13.60;99.90;;;;;;5057478;28;20041;-73
2022/10/16 08:10:43;;;;;;;8.85;3.55;;;13.70;99.90;;;;;;5040942;28;20059;-72
2022/10/16 08:13:09;;;;;;;9.20;2.65;;;13.60;99.90;;;;;;5057366;28;20124;-73
2022/10/16 08:15:35;;;;;;;4.95;1.90;;;13.60;99.90;;;;;;5057597;28;20037;-73
2022/10/16 08:18:03;;;;;;;6.30;3.33;;;13.60;99.90;;;;;;5040322;28;20056;-72
2022/10/16 08:20:29;;;;;;;4.40;1.98;;;13.60;99.90;;;;;;5056921;28;20466;-73
2022/10/16 08:22:55;;;;;;;7.82;2.60;;;13.60;99.90;;;;;;5057857;28;20413;-74
2022/10/16 08:25:22;;;;;;;6.15;2.03;;;13.60;99.90;;;;;;5057557;28;20052;-73
2022/10/16 08:27:48;;;;;;;10.73;2.50;;;13.70;99.90;;;;;;5040131;28;20076;-72
2022/10/16 08:30:14;;;;;;;6.25;1.98;;;13.80;99.90;;;;;;5057483;28;20049;-71
2022/10/16 08:32:41;;;;;;;6.15;2.15;;;13.80;99.90;;;;;;5057390;28;20155;-72
2022/10/16 08:35:09;;;;;;;5.70;1.63;;;13.80;99.90;;;;;;5057843;28;20114;-72
2022/10/16 08:37:35;;;;;;;5.00;2.05;;;13.70;99.90;;;;;;5057089;28;20517;-73
2022/10/16 08:40:00;;;;;;;7.03;1.98;;;13.70;99.90;;;;;;5057285;28;20128;-74
2022/10/16 08:42:52;;;;;;;5.88;2.05;;;13.60;99.90;;;;;;5039847;28;20132;-72
2022/10/16 08:45:45;;;;;;;7.07;2.05;;;13.60;99.90;;;;;;5039441;28;20158;-74
2022/10/16 08:48:46;;;;;;;3.80;1.60;;;13.60;99.90;;;;;;5037285;28;20053;-72
2022/10/16 08:51:23;;;;;;;9.65;2.30;;;13.60;99.90;;;;;;5019994;28;20438;-72
2022/10/16 08:53:56;;;;;;;11.32;2.58;;;13.70;99.90;;;;;;5036109;28;20045;-72
2022/10/16 08:56:23;;;;;;;3.85;1.65;;;13.70;99.90;;;;;;5036951;28;20409;-71
2022/10/16 08:58:49;;;;;;;8.95;1.98;;;13.80;99.90;;;;;;5037669;28;20343;-72
2022/10/16 09:01:18;;;;;;;5.88;2.20;;;13.70;99.90;;;;;;5047273;28;20048;-73
2022/10/16 09:04:02;;;;;;;5.93;2.17;;;13.70;99.90;;;;;;5055455;28;20044;-71
2022/10/16 09:06:40;;;;;;;6.68;2.00;;;13.80;99.90;;;;;;5036715;28;20045;-73
2022/10/16 09:09:24;;;;;;;9.40;2.13;;;13.80;99.90;;;;;;5056139;28;20145;-73
2022/10/16 09:11:55;;;;;;;5.30;2.50;;;13.80;99.90;;;;;;5038777;28;20134;-75
2022/10/16 09:14:36;;;;;;;9.70;2.25;;;13.80;99.90;;;;;;5055780;28;20048;-71
2022/10/16 09:17:52;;;;;;;7.75;2.28;;;13.90;99.90;;;;;;5055454;28;20478;-71
2022/10/16 09:20:22;;;;;;;5.78;2.08;;;13.90;99.90;;;;;;4974916;28;20514;-72
2022/10/16 09:22:48;;;;;;;5.65;1.77;;;14.10;99.90;;;;;;5049100;28;20053;-71
2022/10/16 09:25:20;;;;;;;9.10;2.30;;;14.10;99.90;;;;;;5055914;28;20338;-74
2022/10/16 09:27:48;;;;;;;6.53;2.38;;;14.20;99.90;;;;;;5055758;28;20079;-72
2022/10/16 09:30:17;;;;;;;6.93;1.80;;;14.20;99.90;;;;;;5055062;28;20052;-72
2022/10/16 09:32:45;;;;;;;8.63;2.28;;;14.30;99.90;;;;;;5039189;28;20091;-71
2022/10/16 09:35:19;;;;;;;9.98;1.95;;;14.30;99.90;;;;;;5057132;28;20373;-73
2022/10/16 09:37:48;;;;;;;7.55;1.75;;;14.30;99.90;;;;;;5038111;28;20442;-72
2022/10/16 09:40:25;;;;;;;9.60;2.42;;;14.50;99.90;;;;;;5055375;28;20037;-71
2022/10/16 09:42:56;;;;;;;8.50;2.60;;;14.50;99.90;;;;;;5055507;28;20040;-71
2022/10/16 09:45:23;;;;;;;11.38;2.33;;;14.60;99.90;;;;;;5055491;28;20055;-73
2022/10/16 09:47:49;;;;;;;13.02;2.78;;;14.70;99.90;;;;;;5055285;28;20040;-71
2022/10/16 09:50:26;;;;;;;10.25;2.20;;;14.80;99.90;;;;;;5053698;28;20449;-71
2022/10/16 09:53:03;;;;;;;8.95;2.20;;;14.90;99.90;;;;;;5055304;28;20171;-71
2022/10/16 09:55:30;;;;;;;8.52;2.42;;;15.10;99.90;;;;;;5055215;28;20048;-74
2022/10/16 09:57:56;;;;;;;17.55;2.88;;;15.30;99.90;;;;;;5055262;28;20342;-75
2022/10/16 10:00:23;;;;;;;10.63;2.20;;;15.40;99.90;;;;;;5053579;28;20079;-74
2022/10/16 10:02:49;;;;;;;9.00;2.83;;;15.50;99.90;;;;;;5054166;28;20045;-72
2022/10/16 10:05:29;;;;;;;7.72;2.40;;;15.50;99.90;;;;;;5042319;28;20049;-70
2022/10/16 10:08:05;;;;;;;13.55;2.85;;;15.60;99.90;;;;;;5035731;28;20064;-72
2022/10/16 10:10:34;;;;;;;12.52;2.63;;;15.70;99.90;;;;;;5046737;28;20477;-72
2022/10/16 10:13:00;;;;;;;11.10;2.50;;;15.80;99.90;;;;;;5039870;28;20089;-72
2022/10/16 10:15:32;;;;;;;7.00;2.08;;;15.70;99.90;;;;;;5049458;28;20037;-71
2022/10/16 10:18:03;;;;;;;10.95;2.40;;;15.70;99.90;;;;;;5054875;28;20114;-72
2022/10/16 10:20:34;;;;;;;12.43;2.28;;;15.70;99.90;;;;;;5055350;28;20040;-73
2022/10/16 10:23:00;;;;;;;7.47;2.40;;;15.80;99.90;;;;;;5021097;28;20052;-71
2022/10/16 10:25:31;;;;;;;9.93;2.75;;;15.70;99.90;;;;;;5054745;28;20098;-72
2022/10/16 10:28:06;;;;;;;12.10;2.42;;;15.80;99.90;;;;;;5055074;28;20052;-72
2022/10/16 10:31:01;;;;;;;11.43;2.42;;;15.80;99.90;;;;;;5054902;28;20040;-73
2022/10/16 10:33:54;;;;;;;7.10;2.05;;;16.00;99.90;;;;;;5054745;28;20051;-73
2022/10/16 10:36:24;;;;;;;12.53;2.80;;;16.00;99.90;;;;;;5054788;28;20118;-72
2022/10/16 10:38:56;;;;;;;13.52;2.58;;;16.00;99.90;;;;;;5037292;28;20123;-72
2022/10/16 10:41:30;;;;;;;11.88;2.47;;;16.10;99.90;;;;;;5055086;28;20045;-72
2022/10/16 10:44:10;;;;;;;11.93;2.55;;;16.10;99.90;;;;;;5055412;28;20045;-74
2022/10/16 10:46:48;;;;;;;10.88;2.45;;;16.10;99.90;;;;;;5054573;28;20049;-74
2022/10/16 10:49:27;;;;;;;11.57;2.30;;;16.20;99.90;;;;;;5054978;28;20080;-72
2022/10/16 10:51:53;;;;;;;11.23;2.63;;;16.10;99.90;;;;;;5055158;28;20052;-73
2022/10/16 10:54:43;;;;;;;9.90;2.55;;;16.00;99.90;;;;;;5051101;28;20041;-71
2022/10/16 10:57:25;;;;;;;9.90;2.28;;;16.00;99.90;;;;;;5037140;28;20037;-74
2022/10/16 11:00:09;;;;;;;14.55;3.00;;;16.00;99.90;;;;;;5054989;28;20059;-71
2022/10/16 11:02:47;;;;;;;7.95;2.30;;;16.00;99.90;;;;;;5054759;28;20048;-72
2022/10/16 11:05:27;;;;;;;12.52;2.40;;;15.80;99.90;;;;;;5054221;28;20052;-72
2022/10/16 11:08:02;;;;;;;13.32;3.03;;;15.90;99.90;;;;;;5055217;28;20346;-73
2022/10/16 11:10:36;;;;;;;11.18;2.42;;;16.00;99.90;;;;;;5054879;28;20373;-72
2022/10/16 11:13:30;;;;;;;12.43;2.65;;;16.10;99.90;;;;;;5054644;28;20044;-75
2022/10/16 11:16:00;;;;;;;11.27;2.30;;;16.10;99.90;;;;;;5054096;28;20072;-73
2022/10/16 11:18:51;;;;;;;9.80;2.38;;;16.20;99.90;;;;;;5057397;28;20037;-70
2022/10/16 11:21:19;;;;;;;14.18;3.33;;;16.30;99.90;;;;;;5049747;28;20057;-71
2022/10/16 11:24:00;;;;;;;12.43;2.53;;;16.20;99.90;;;;;;5058896;28;20036;-73
2022/10/16 11:26:31;;;;;;;10.73;2.38;;;16.30;99.90;;;;;;5058547;28;20047;-73
2022/10/16 11:28:59;;;;;;;9.82;2.30;;;16.20;99.90;;;;;;5058562;28;20491;-72
2022/10/16 11:31:29;;;;;;;10.90;2.60;;;16.20;99.90;;;;;;5058441;28;20119;-70
2022/10/16 11:34:17;;;;;;;12.40;2.60;;;16.20;99.90;;;;;;5058732;28;20049;-71
2022/10/16 11:37:09;;;;;;;10.35;2.50;;;16.40;99.90;;;;;;5059196;28;20053;-71
2022/10/16 11:39:35;;;;;;;12.68;2.13;;;16.50;99.90;;;;;;5058781;28;20041;-70
2022/10/16 11:42:11;;;;;;;17.17;2.83;;;16.70;99.90;;;;;;5058226;28;20068;-72
2022/10/16 11:44:42;;;;;;;11.95;2.40;;;16.80;99.90;;;;;;5058034;28;20106;-72
2022/10/16 11:47:39;;;;;;;10.00;2.60;;;17.00;99.90;;;;;;5041066;28;20053;-72
2022/10/16 11:50:19;;;;;;;13.02;3.13;;;17.00;99.90;;;;;;5058141;28;20466;-72
2022/10/16 11:52:53;;;;;;;11.98;2.50;;;17.00;99.90;;;;;;5058248;28;20039;-70
2022/10/16 11:55:22;;;;;;;;;;;17.10;99.90;;;;;;5058820;28;20045;-70
2022/10/16 11:57:53;;;;;;;9.45;2.45;;;17.00;99.90;;;;;;5058023;28;20295;-73
2022/10/16 12:00:36;;;;;;;11.48;2.00;;;16.90;99.90;;;;;;5057522;28;20048;-73
2022/10/16 12:03:37;;;;;;;10.80;2.78;;;17.00;99.90;;;;;;5057593;28;20053;-72
2022/10/16 12:06:30;;;;;;;10.40;2.40;;;17.10;99.90;;;;;;5058025;28;20045;-73
2022/10/16 12:08:58;;;;;;;;;;;17.20;99.90;;;;;;5058362;28;20041;-74
2022/10/16 12:11:32;;;;;;;12.95;2.83;;;17.30;99.90;;;;;;5058033;28;19933;-74
2022/10/16 12:14:20;;;;;;;13.35;2.88;;;17.40;99.90;;;;;;5057558;28;20041;-72
2022/10/16 12:17:05;;;;;;;13.20;3.00;;;17.50;99.90;;;;;;5057393;28;20396;-73
2022/10/16 12:19:32;;;;;;;10.70;2.33;;;17.50;99.90;;;;;;5022401;28;20053;-74
2022/10/16 12:22:03;;;;;;;15.05;3.22;;;17.60;99.90;;;;;;5057655;28;20361;-73
2022/10/16 12:24:42;;;;;;;12.02;2.95;;;17.70;99.90;;;;;;5057643;28;20044;-71
2022/10/16 12:27:33;;;;;;;9.23;1.90;;;17.80;99.90;;;;;;5057119;28;20507;-72
2022/10/16 12:30:02;;;;;;;13.10;2.60;;;17.90;99.90;;;;;;5050973;28;20056;-71
2022/10/16 12:32:33;;;;;;;14.52;2.83;;;17.90;99.90;;;;;;5057469;28;20041;-72
2022/10/16 12:35:01;;;;;;;9.40;2.58;;;18.10;99.90;;;;;;5055239;28;20053;-73
2022/10/16 12:37:35;;;;;;;13.43;3.28;;;18.20;99.90;;;;;;5044918;28;20049;-74
2022/10/16 12:40:23;;;;;;;14.43;2.50;;;18.20;99.90;;;;;;5042133;28;20125;-74
2022/10/16 12:42:49;;;;;;;9.02;2.30;;;18.30;99.90;;;;;;5041870;28;20056;-72
2022/10/16 12:45:32;;;;;;;12.05;2.67;;;18.30;99.90;;;;;;5046295;28;20457;-73
2022/10/16 12:48:17;;;;;;;17.83;3.35;;;18.20;99.90;;;;;;5056899;28;20369;-74
2022/10/16 12:50:42;;;;;;;7.65;1.73;;;18.20;99.90;;;;;;5055059;28;20053;-72
2022/10/16 12:53:28;;;;;;;13.93;3.05;;;18.30;99.90;;;;;;5036999;28;20115;-76
2022/10/16 12:56:23;;;;;;;15.50;2.50;;;18.30;99.90;;;;;;5036695;28;20116;-74
2022/10/16 12:59:11;;;;;;;17.67;2.63;;;18.20;99.90;;;;;;5036229;28;20038;-74
2022/10/16 13:02:07;;;;;;;10.43;2.28;;;18.10;99.90;;;;;;5036883;28;20049;-74
2022/10/16 13:04:57;;;;;;;12.32;2.80;;;18.00;99.90;;;;;;5038962;28;20517;-71